sensor_id;sensor_type;location;lat;lon;timestamp;temperature;humidity
22635;DHT22;11484;50.858;4.384;2023-05-07T00:00:47;19.40;99.90
22635;DHT22;11484;50.858;4.384;2023-05-07T00:03:13;19.30;99.90
22635;DHT22;11484;50.858;4.384;2023-05-07T00:05:39;19.30;99.90
22635;DHT22;11484;50.858;4.384;2023-05-07T00:08:05;19.20;99.90
22635;DHT22;11484;50.858;4.384;2023-05-07T00:10:30;19.20;99.90
22635;DHT22;11484;50.858;4.384;2023-05-07T00:12:59;19.30;99.90
22635;DHT22;11484;50.858;4.384;2023-05-07T00:15:24;19.30;99.90
22635;DHT22;11484;50.858;4.384;2023-05-07T00:17:50;19.30;99.90
22635;DHT22;11484;50.858;4.384;2023-05-07T00:20:16;19.40;99.90
22635;DHT22;11484;50.858;4.384;2023-05-07T00:22:41;19.30;99.90
22635;DHT22;11484;50.858;4.384;2023-05-07T00:25:07;19.30;99.90
22635;DHT22;11484;50.858;4.384;2023-05-07T00:27:33;19.20;99.90
22635;DHT22;11484;50.858;4.384;2023-05-07T00:29:59;19.10;99.90
22635;DHT22;11484;50.858;4.384;2023-05-07T00:32:24;19.00;99.90
22635;DHT22;11484;50.858;4.384;2023-05-07T00:34:50;18.90;99.90
22635;DHT22;11484;50.858;4.384;2023-05-07T00:37:16;19.00;99.90
22635;DHT22;11484;50.858;4.384;2023-05-07T00:39:42;19.10;99.90
22635;DHT22;11484;50.858;4.384;2023-05-07T00:42:07;19.10;99.90
22635;DHT22;11484;50.858;4.384;2023-05-07T00:44:33;19.10;99.90
22635;DHT22;11484;50.858;4.384;2023-05-07T00:47:02;19.10;99.90
22635;DHT22;11484;50.858;4.384;2023-05-07T00:49:39;19.20;99.90
22635;DHT22;11484;50.858;4.384;2023-05-07T00:52:06;19.20;99.90
22635;DHT22;11484;50.858;4.384;2023-05-07T00:54:36;19.30;99.90
22635;DHT22;11484;50.858;4.384;2023-05-07T00:57:03;19.30;99.90
22635;DHT22;11484;50.858;4.384;2023-05-07T00:59:31;19.30;99.90
22635;DHT22;11484;50.858;4.384;2023-05-07T01:01:57;19.30;99.90
22635;DHT22;11484;50.858;4.384;2023-05-07T01:04:23;19.30;99.90
22635;DHT22;11484;50.858;4.384;2023-05-07T01:06:49;19.20;99.90
22635;DHT22;11484;50.858;4.384;2023-05-07T01:09:20;19.20;99.90
22635;DHT22;11484;50.858;4.384;2023-05-07T01:11:47;19.20;99.90
22635;DHT22;11484;50.858;4.384;2023-05-07T01:14:13;19.20;99.90
22635;DHT22;11484;50.858;4.384;2023-05-07T01:16:38;19.20;99.90
22635;DHT22;11484;50.858;4.384;2023-05-07T01:19:08;19.20;99.90
22635;DHT22;11484;50.858;4.384;2023-05-07T01:21:35;19.20;99.90
22635;DHT22;11484;50.858;4.384;2023-05-07T01:24:03;19.20;99.90
22635;DHT22;11484;50.858;4.384;2023-05-07T01:26:29;19.20;99.90
22635;DHT22;11484;50.858;4.384;2023-05-07T01:28:55;19.20;99.90
22635;DHT22;11484;50.858;4.384;2023-05-07T01:31:20;19.10;99.90
22635;DHT22;11484;50.858;4.384;2023-05-07T01:33:48;19.10;99.90
22635;DHT22;11484;50.858;4.384;2023-05-07T01:36:17;19.00;99.90
22635;DHT22;11484;50.858;4.384;2023-05-07T01:38:43;19.10;99.90
22635;DHT22;11484;50.858;4.384;2023-05-07T01:41:10;19.10;99.90
22635;DHT22;11484;50.858;4.384;2023-05-07T01:43:37;19.10;99.90
22635;DHT22;11484;50.858;4.384;2023-05-07T01:46:02;19.00;99.90
22635;DHT22;11484;50.858;4.384;2023-05-07T01:48:29;19.00;99.90
22635;DHT22;11484;50.858;4.384;2023-05-07T01:50:55;19.00;99.90
22635;DHT22;11484;50.858;4.384;2023-05-07T01:53:21;18.90;99.90
22635;DHT22;11484;50.858;4.384;2023-05-07T01:55:46;19.00;99.90
22635;DHT22;11484;50.858;4.384;2023-05-07T01:58:12;19.00;99.90
22635;DHT22;11484;50.858;4.384;2023-05-07T02:00:38;19.00;99.90
22635;DHT22;11484;50.858;4.384;2023-05-07T02:03:03;18.90;99.90
22635;DHT22;11484;50.858;4.384;2023-05-07T02:05:29;18.80;99.90
22635;DHT22;11484;50.858;4.384;2023-05-07T02:07:55;18.80;99.90
22635;DHT22;11484;50.858;4.384;2023-05-07T02:10:21;18.80;99.90
22635;DHT22;11484;50.858;4.384;2023-05-07T02:12:46;18.70;99.90
22635;DHT22;11484;50.858;4.384;2023-05-07T02:15:12;18.70;99.90
22635;DHT22;11484;50.858;4.384;2023-05-07T02:18:00;18.60;99.90
22635;DHT22;11484;50.858;4.384;2023-05-07T02:20:26;18.60;99.90
22635;DHT22;11484;50.858;4.384;2023-05-07T02:22:53;18.70;99.90
22635;DHT22;11484;50.858;4.384;2023-05-07T02:25:18;18.70;99.90
22635;DHT22;11484;50.858;4.384;2023-05-07T02:27:44;18.80;99.90
22635;DHT22;11484;50.858;4.384;2023-05-07T02:30:10;18.80;99.90
22635;DHT22;11484;50.858;4.384;2023-05-07T02:32:36;18.80;99.90
22635;DHT22;11484;50.858;4.384;2023-05-07T02:35:02;18.70;99.90
22635;DHT22;11484;50.858;4.384;2023-05-07T02:37:28;18.70;99.90
22635;DHT22;11484;50.858;4.384;2023-05-07T02:39:53;18.70;99.90
22635;DHT22;11484;50.858;4.384;2023-05-07T02:42:19;18.70;99.90
22635;DHT22;11484;50.858;4.384;2023-05-07T02:44:45;18.70;99.90
22635;DHT22;11484;50.858;4.384;2023-05-07T02:47:10;18.60;99.90
22635;DHT22;11484;50.858;4.384;2023-05-07T02:49:38;18.50;99.90
22635;DHT22;11484;50.858;4.384;2023-05-07T02:52:04;18.50;99.90
22635;DHT22;11484;50.858;4.384;2023-05-07T02:54:30;18.50;99.90
22635;DHT22;11484;50.858;4.384;2023-05-07T02:56:56;18.40;99.90
22635;DHT22;11484;50.858;4.384;2023-05-07T02:59:21;18.40;99.90
22635;DHT22;11484;50.858;4.384;2023-05-07T03:01:47;18.40;99.90
22635;DHT22;11484;50.858;4.384;2023-05-07T03:04:13;18.40;99.90
22635;DHT22;11484;50.858;4.384;2023-05-07T03:06:39;18.40;99.90
22635;DHT22;11484;50.858;4.384;2023-05-07T03:09:05;18.40;99.90
22635;DHT22;11484;50.858;4.384;2023-05-07T03:11:30;18.50;99.90
22635;DHT22;11484;50.858;4.384;2023-05-07T03:13:56;18.50;99.90
22635;DHT22;11484;50.858;4.384;2023-05-07T03:16:22;18.50;99.90
22635;DHT22;11484;50.858;4.384;2023-05-07T03:18:47;18.60;99.90
22635;DHT22;11484;50.858;4.384;2023-05-07T03:21:13;18.70;99.90
22635;DHT22;11484;50.858;4.384;2023-05-07T03:23:39;18.70;99.90
22635;DHT22;11484;50.858;4.384;2023-05-07T03:26:04;18.70;99.90
22635;DHT22;11484;50.858;4.384;2023-05-07T03:28:30;18.70;99.90
22635;DHT22;11484;50.858;4.384;2023-05-07T03:30:56;18.80;99.90
22635;DHT22;11484;50.858;4.384;2023-05-07T03:33:21;18.70;99.90
22635;DHT22;11484;50.858;4.384;2023-05-07T03:35:47;18.70;99.90
22635;DHT22;11484;50.858;4.384;2023-05-07T03:38:13;18.80;99.90
22635;DHT22;11484;50.858;4.384;2023-05-07T03:40:38;18.80;99.90
22635;DHT22;11484;50.858;4.384;2023-05-07T03:43:04;18.80;99.90
22635;DHT22;11484;50.858;4.384;2023-05-07T03:45:30;18.80;99.90
22635;DHT22;11484;50.858;4.384;2023-05-07T03:47:56;18.80;99.90
22635;DHT22;11484;50.858;4.384;2023-05-07T03:50:21;18.80;99.90
22635;DHT22;11484;50.858;4.384;2023-05-07T03:52:47;18.80;99.90
22635;DHT22;11484;50.858;4.384;2023-05-07T03:55:12;18.80;99.90
22635;DHT22;11484;50.858;4.384;2023-05-07T03:57:38;18.80;99.90
22635;DHT22;11484;50.858;4.384;2023-05-07T04:00:04;18.70;99.90
22635;DHT22;11484;50.858;4.384;2023-05-07T04:02:32;18.80;99.90
22635;DHT22;11484;50.858;4.384;2023-05-07T04:04:58;18.80;99.90
22635;DHT22;11484;50.858;4.384;2023-05-07T04:07:24;18.80;99.90
22635;DHT22;11484;50.858;4.384;2023-05-07T04:09:49;18.80;99.90
22635;DHT22;11484;50.858;4.384;2023-05-07T04:12:15;18.80;99.90
22635;DHT22;11484;50.858;4.384;2023-05-07T04:14:41;18.80;99.90
22635;DHT22;11484;50.858;4.384;2023-05-07T04:17:06;18.80;99.90
22635;DHT22;11484;50.858;4.384;2023-05-07T04:19:35;18.80;99.90
22635;DHT22;11484;50.858;4.384;2023-05-07T04:22:00;18.90;99.90
22635;DHT22;11484;50.858;4.384;2023-05-07T04:24:26;18.90;99.90
22635;DHT22;11484;50.858;4.384;2023-05-07T04:26:52;18.90;99.90
22635;DHT22;11484;50.858;4.384;2023-05-07T04:29:18;18.80;99.90
22635;DHT22;11484;50.858;4.384;2023-05-07T04:31:44;18.70;99.90
22635;DHT22;11484;50.858;4.384;2023-05-07T04:34:10;18.80;99.90
22635;DHT22;11484;50.858;4.384;2023-05-07T04:36:38;18.80;99.90
22635;DHT22;11484;50.858;4.384;2023-05-07T04:39:04;18.80;99.90
22635;DHT22;11484;50.858;4.384;2023-05-07T04:41:30;18.80;99.90
22635;DHT22;11484;50.858;4.384;2023-05-07T04:43:55;18.90;99.90
22635;DHT22;11484;50.858;4.384;2023-05-07T04:46:22;19.00;99.90
22635;DHT22;11484;50.858;4.384;2023-05-07T04:48:51;19.00;99.90
22635;DHT22;11484;50.858;4.384;2023-05-07T04:51:16;19.00;99.90
22635;DHT22;11484;50.858;4.384;2023-05-07T04:53:42;18.90;99.90
22635;DHT22;11484;50.858;4.384;2023-05-07T04:56:08;18.90;99.90
22635;DHT22;11484;50.858;4.384;2023-05-07T04:58:34;18.90;99.90
22635;DHT22;11484;50.858;4.384;2023-05-07T05:01:00;18.90;99.90
22635;DHT22;11484;50.858;4.384;2023-05-07T05:03:26;19.00;99.90
22635;DHT22;11484;50.858;4.384;2023-05-07T05:05:52;19.00;99.90
22635;DHT22;11484;50.858;4.384;2023-05-07T05:08:18;19.00;99.90
22635;DHT22;11484;50.858;4.384;2023-05-07T05:10:44;19.10;99.90
22635;DHT22;11484;50.858;4.384;2023-05-07T05:13:10;19.10;99.90
22635;DHT22;11484;50.858;4.384;2023-05-07T05:15:38;19.20;99.90
22635;DHT22;11484;50.858;4.384;2023-05-07T05:18:04;19.20;99.90
22635;DHT22;11484;50.858;4.384;2023-05-07T05:20:29;19.30;99.90
22635;DHT22;11484;50.858;4.384;2023-05-07T05:22:55;19.30;99.90
22635;DHT22;11484;50.858;4.384;2023-05-07T05:25:21;19.40;99.90
22635;DHT22;11484;50.858;4.384;2023-05-07T05:27:46;19.40;99.90
22635;DHT22;11484;50.858;4.384;2023-05-07T05:30:12;19.50;99.90
22635;DHT22;11484;50.858;4.384;2023-05-07T05:32:38;19.60;99.90
22635;DHT22;11484;50.858;4.384;2023-05-07T05:35:04;19.70;99.90
22635;DHT22;11484;50.858;4.384;2023-05-07T05:37:31;19.70;99.90
22635;DHT22;11484;50.858;4.384;2023-05-07T05:39:57;19.60;99.90
22635;DHT22;11484;50.858;4.384;2023-05-07T05:42:22;19.50;99.90
22635;DHT22;11484;50.858;4.384;2023-05-07T05:44:48;19.50;99.90
22635;DHT22;11484;50.858;4.384;2023-05-07T05:47:14;19.60;99.90
22635;DHT22;11484;50.858;4.384;2023-05-07T05:49:40;19.60;99.90
22635;DHT22;11484;50.858;4.384;2023-05-07T05:52:05;19.70;99.90
22635;DHT22;11484;50.858;4.384;2023-05-07T05:54:31;19.70;99.90
22635;DHT22;11484;50.858;4.384;2023-05-07T05:56:57;19.70;99.90
22635;DHT22;11484;50.858;4.384;2023-05-07T05:59:23;19.70;99.90
22635;DHT22;11484;50.858;4.384;2023-05-07T06:01:49;19.70;99.90
22635;DHT22;11484;50.858;4.384;2023-05-07T06:04:14;19.60;99.90
22635;DHT22;11484;50.858;4.384;2023-05-07T06:06:40;19.60;99.90
22635;DHT22;11484;50.858;4.384;2023-05-07T06:09:06;19.50;99.90
22635;DHT22;11484;50.858;4.384;2023-05-07T06:11:32;19.40;99.90
22635;DHT22;11484;50.858;4.384;2023-05-07T06:13:58;19.40;99.90
22635;DHT22;11484;50.858;4.384;2023-05-07T06:16:25;19.20;99.90
22635;DHT22;11484;50.858;4.384;2023-05-07T06:18:50;19.20;99.90
22635;DHT22;11484;50.858;4.384;2023-05-07T06:21:16;19.10;99.90
22635;DHT22;11484;50.858;4.384;2023-05-07T06:23:41;19.00;99.90
22635;DHT22;11484;50.858;4.384;2023-05-07T06:26:07;19.00;99.90
22635;DHT22;11484;50.858;4.384;2023-05-07T06:28:33;19.00;99.90
22635;DHT22;11484;50.858;4.384;2023-05-07T06:31:15;18.90;99.90
22635;DHT22;11484;50.858;4.384;2023-05-07T06:33:42;18.90;99.90
22635;DHT22;11484;50.858;4.384;2023-05-07T06:36:08;18.90;99.90
22635;DHT22;11484;50.858;4.384;2023-05-07T06:38:33;18.90;99.90
22635;DHT22;11484;50.858;4.384;2023-05-07T06:40:59;19.00;99.90
22635;DHT22;11484;50.858;4.384;2023-05-07T06:43:25;19.00;99.90
22635;DHT22;11484;50.858;4.384;2023-05-07T06:45:50;19.00;99.90
22635;DHT22;11484;50.858;4.384;2023-05-07T06:48:16;19.10;99.90
22635;DHT22;11484;50.858;4.384;2023-05-07T06:50:42;19.00;99.90
22635;DHT22;11484;50.858;4.384;2023-05-07T06:53:07;19.00;99.90
22635;DHT22;11484;50.858;4.384;2023-05-07T06:55:33;18.90;99.90
22635;DHT22;11484;50.858;4.384;2023-05-07T06:57:59;18.80;99.90
22635;DHT22;11484;50.858;4.384;2023-05-07T07:00:27;18.80;99.90
22635;DHT22;11484;50.858;4.384;2023-05-07T07:02:54;18.90;99.90
22635;DHT22;11484;50.858;4.384;2023-05-07T07:05:20;18.80;99.90
22635;DHT22;11484;50.858;4.384;2023-05-07T07:07:45;18.70;99.90
22635;DHT22;11484;50.858;4.384;2023-05-07T07:10:18;18.70;99.90
22635;DHT22;11484;50.858;4.384;2023-05-07T07:12:44;18.60;99.90
22635;DHT22;11484;50.858;4.384;2023-05-07T07:15:10;18.50;99.90
22635;DHT22;11484;50.858;4.384;2023-05-07T07:17:36;18.50;99.90
22635;DHT22;11484;50.858;4.384;2023-05-07T07:20:02;18.40;99.90
22635;DHT22;11484;50.858;4.384;2023-05-07T07:22:28;18.40;99.90
22635;DHT22;11484;50.858;4.384;2023-05-07T07:24:54;18.40;99.90
22635;DHT22;11484;50.858;4.384;2023-05-07T07:27:20;18.40;99.90
22635;DHT22;11484;50.858;4.384;2023-05-07T07:29:46;18.50;99.90
22635;DHT22;11484;50.858;4.384;2023-05-07T07:32:11;18.50;99.90
22635;DHT22;11484;50.858;4.384;2023-05-07T07:34:37;18.60;99.90
22635;DHT22;11484;50.858;4.384;2023-05-07T07:37:03;18.70;99.90
22635;DHT22;11484;50.858;4.384;2023-05-07T07:39:32;18.60;99.90
22635;DHT22;11484;50.858;4.384;2023-05-07T07:41:57;18.60;99.90
22635;DHT22;11484;50.858;4.384;2023-05-07T07:44:23;18.70;99.90
22635;DHT22;11484;50.858;4.384;2023-05-07T07:46:49;18.80;99.90
22635;DHT22;11484;50.858;4.384;2023-05-07T07:49:16;18.80;99.90
22635;DHT22;11484;50.858;4.384;2023-05-07T07:51:41;18.80;99.90
22635;DHT22;11484;50.858;4.384;2023-05-07T07:54:07;18.90;99.90
22635;DHT22;11484;50.858;4.384;2023-05-07T07:56:33;18.90;99.90
22635;DHT22;11484;50.858;4.384;2023-05-07T07:58:59;19.00;99.90
22635;DHT22;11484;50.858;4.384;2023-05-07T08:01:25;19.10;99.90
22635;DHT22;11484;50.858;4.384;2023-05-07T08:03:52;19.10;99.90
22635;DHT22;11484;50.858;4.384;2023-05-07T08:06:18;19.00;99.90
22635;DHT22;11484;50.858;4.384;2023-05-07T08:08:43;19.10;99.90
22635;DHT22;11484;50.858;4.384;2023-05-07T08:11:09;19.10;99.90
22635;DHT22;11484;50.858;4.384;2023-05-07T08:13:36;19.20;99.90
22635;DHT22;11484;50.858;4.384;2023-05-07T08:16:02;19.20;99.90
22635;DHT22;11484;50.858;4.384;2023-05-07T08:18:27;19.30;99.90
22635;DHT22;11484;50.858;4.384;2023-05-07T08:20:54;19.30;99.90
22635;DHT22;11484;50.858;4.384;2023-05-07T08:23:20;19.30;99.90
22635;DHT22;11484;50.858;4.384;2023-05-07T08:25:46;19.20;99.90
22635;DHT22;11484;50.858;4.384;2023-05-07T08:28:12;19.20;99.90
22635;DHT22;11484;50.858;4.384;2023-05-07T08:30:37;19.20;99.90
22635;DHT22;11484;50.858;4.384;2023-05-07T08:33:03;19.20;99.90
22635;DHT22;11484;50.858;4.384;2023-05-07T08:35:29;19.20;99.90
22635;DHT22;11484;50.858;4.384;2023-05-07T08:37:55;19.30;99.90
22635;DHT22;11484;50.858;4.384;2023-05-07T08:40:25;19.30;99.90
22635;DHT22;11484;50.858;4.384;2023-05-07T08:42:52;19.30;99.90
22635;DHT22;11484;50.858;4.384;2023-05-07T08:45:19;19.30;99.90
22635;DHT22;11484;50.858;4.384;2023-05-07T08:47:52;19.20;99.90
22635;DHT22;11484;50.858;4.384;2023-05-07T08:50:21;19.20;99.90
22635;DHT22;11484;50.858;4.384;2023-05-07T08:52:47;19.20;99.90
22635;DHT22;11484;50.858;4.384;2023-05-07T08:55:13;19.20;99.90
22635;DHT22;11484;50.858;4.384;2023-05-07T08:57:39;19.20;99.90
22635;DHT22;11484;50.858;4.384;2023-05-07T09:00:05;19.10;99.90
22635;DHT22;11484;50.858;4.384;2023-05-07T09:02:33;19.10;99.90
22635;DHT22;11484;50.858;4.384;2023-05-07T09:05:00;19.30;99.90
22635;DHT22;11484;50.858;4.384;2023-05-07T09:07:25;19.20;99.90
22635;DHT22;11484;50.858;4.384;2023-05-07T09:09:52;19.30;99.90
22635;DHT22;11484;50.858;4.384;2023-05-07T09:12:19;19.30;99.90
22635;DHT22;11484;50.858;4.384;2023-05-07T09:14:45;19.30;99.90
22635;DHT22;11484;50.858;4.384;2023-05-07T09:17:12;19.40;99.90
22635;DHT22;11484;50.858;4.384;2023-05-07T09:19:38;19.30;99.90
22635;DHT22;11484;50.858;4.384;2023-05-07T09:22:05;19.20;99.90
22635;DHT22;11484;50.858;4.384;2023-05-07T09:24:32;19.30;99.90
22635;DHT22;11484;50.858;4.384;2023-05-07T09:27:04;19.20;99.90
22635;DHT22;11484;50.858;4.384;2023-05-07T09:29:30;19.20;99.90
22635;DHT22;11484;50.858;4.384;2023-05-07T09:32:05;19.40;99.90
22635;DHT22;11484;50.858;4.384;2023-05-07T09:34:31;19.40;99.90
22635;DHT22;11484;50.858;4.384;2023-05-07T09:37:00;19.50;99.90
22635;DHT22;11484;50.858;4.384;2023-05-07T09:39:26;19.70;99.90
22635;DHT22;11484;50.858;4.384;2023-05-07T09:41:52;19.80;99.90
22635;DHT22;11484;50.858;4.384;2023-05-07T09:44:20;19.80;99.90
22635;DHT22;11484;50.858;4.384;2023-05-07T09:46:50;19.90;99.90
22635;DHT22;11484;50.858;4.384;2023-05-07T09:49:23;19.90;99.90
22635;DHT22;11484;50.858;4.384;2023-05-07T09:51:50;19.90;99.90
22635;DHT22;11484;50.858;4.384;2023-05-07T09:54:17;19.90;99.90
22635;DHT22;11484;50.858;4.384;2023-05-07T09:56:48;19.90;99.90
22635;DHT22;11484;50.858;4.384;2023-05-07T09:59:14;20.00;99.90
22635;DHT22;11484;50.858;4.384;2023-05-07T10:01:43;20.00;99.90
22635;DHT22;11484;50.858;4.384;2023-05-07T10:04:14;20.00;99.90
22635;DHT22;11484;50.858;4.384;2023-05-07T10:06:40;20.10;99.90
22635;DHT22;11484;50.858;4.384;2023-05-07T10:09:06;20.10;99.90
22635;DHT22;11484;50.858;4.384;2023-05-07T10:11:36;20.10;99.90
22635;DHT22;11484;50.858;4.384;2023-05-07T10:14:03;20.20;99.90
22635;DHT22;11484;50.858;4.384;2023-05-07T10:16:35;20.30;99.90
22635;DHT22;11484;50.858;4.384;2023-05-07T10:19:06;20.30;99.90
22635;DHT22;11484;50.858;4.384;2023-05-07T10:21:39;20.30;99.90
22635;DHT22;11484;50.858;4.384;2023-05-07T10:24:13;20.30;99.90
22635;DHT22;11484;50.858;4.384;2023-05-07T10:26:44;20.10;99.90
22635;DHT22;11484;50.858;4.384;2023-05-07T10:30:14;20.10;99.90
22635;DHT22;11484;50.858;4.384;2023-05-07T10:32:45;19.90;99.90
22635;DHT22;11484;50.858;4.384;2023-05-07T10:35:19;20.10;99.90
22635;DHT22;11484;50.858;4.384;2023-05-07T10:37:46;20.10;99.90
22635;DHT22;11484;50.858;4.384;2023-05-07T10:40:12;20.10;99.90
22635;DHT22;11484;50.858;4.384;2023-05-07T10:42:39;20.20;99.90
22635;DHT22;11484;50.858;4.384;2023-05-07T10:45:17;20.30;99.90
22635;DHT22;11484;50.858;4.384;2023-05-07T10:50:35;20.40;99.90
22635;DHT22;11484;50.858;4.384;2023-05-07T10:56:24;20.50;99.90
22635;DHT22;11484;50.858;4.384;2023-05-07T10:58:37;20.40;99.90
22635;DHT22;11484;50.858;4.384;2023-05-07T11:01:03;20.50;99.90
22635;DHT22;11484;50.858;4.384;2023-05-07T11:03:29;20.50;99.90
22635;DHT22;11484;50.858;4.384;2023-05-07T11:11:32;20.70;99.90
22635;DHT22;11484;50.858;4.384;2023-05-07T11:14:05;20.80;99.90
22635;DHT22;11484;50.858;4.384;2023-05-07T11:16:32;20.80;99.90
22635;DHT22;11484;50.858;4.384;2023-05-07T11:19:01;20.70;99.90
22635;DHT22;11484;50.858;4.384;2023-05-07T11:24:03;20.90;99.90
22635;DHT22;11484;50.858;4.384;2023-05-07T11:26:51;20.80;99.90
22635;DHT22;11484;50.858;4.384;2023-05-07T11:29:20;20.80;99.90
22635;DHT22;11484;50.858;4.384;2023-05-07T11:31:51;20.90;99.90
22635;DHT22;11484;50.858;4.384;2023-05-07T11:34:21;21.00;99.90
22635;DHT22;11484;50.858;4.384;2023-05-07T11:36:52;21.00;99.90
22635;DHT22;11484;50.858;4.384;2023-05-07T11:39:32;21.00;99.90
22635;DHT22;11484;50.858;4.384;2023-05-07T11:41:59;21.10;99.90
22635;DHT22;11484;50.858;4.384;2023-05-07T11:44:25;21.10;99.90
22635;DHT22;11484;50.858;4.384;2023-05-07T11:46:53;21.10;99.90
22635;DHT22;11484;50.858;4.384;2023-05-07T11:49:19;21.10;99.90
22635;DHT22;11484;50.858;4.384;2023-05-07T11:51:45;21.10;99.90
22635;DHT22;11484;50.858;4.384;2023-05-07T11:54:15;21.10;99.90
22635;DHT22;11484;50.858;4.384;2023-05-07T11:56:41;21.20;99.90
22635;DHT22;11484;50.858;4.384;2023-05-07T11:59:07;21.20;99.90
22635;DHT22;11484;50.858;4.384;2023-05-07T12:01:35;21.30;99.90
22635;DHT22;11484;50.858;4.384;2023-05-07T12:04:03;21.30;99.90
22635;DHT22;11484;50.858;4.384;2023-05-07T12:06:28;20.90;99.90
22635;DHT22;11484;50.858;4.384;2023-05-07T12:08:54;20.90;99.90
22635;DHT22;11484;50.858;4.384;2023-05-07T12:11:24;21.10;99.90
22635;DHT22;11484;50.858;4.384;2023-05-07T12:13:51;21.20;99.90
22635;DHT22;11484;50.858;4.384;2023-05-07T12:16:20;21.30;99.90
22635;DHT22;11484;50.858;4.384;2023-05-07T12:18:47;21.40;99.90
22635;DHT22;11484;50.858;4.384;2023-05-07T12:21:13;21.40;99.90
22635;DHT22;11484;50.858;4.384;2023-05-07T12:23:39;21.40;99.90
22635;DHT22;11484;50.858;4.384;2023-05-07T12:26:05;21.50;99.90
22635;DHT22;11484;50.858;4.384;2023-05-07T12:28:35;21.70;99.90
22635;DHT22;11484;50.858;4.384;2023-05-07T12:31:01;21.90;99.90
22635;DHT22;11484;50.858;4.384;2023-05-07T12:33:29;21.90;99.90
22635;DHT22;11484;50.858;4.384;2023-05-07T12:36:03;21.90;99.90
22635;DHT22;11484;50.858;4.384;2023-05-07T12:38:37;21.80;99.90
22635;DHT22;11484;50.858;4.384;2023-05-07T12:41:03;21.70;99.90
22635;DHT22;11484;50.858;4.384;2023-05-07T12:43:29;21.50;99.90
22635;DHT22;11484;50.858;4.384;2023-05-07T12:45:57;21.60;99.90
22635;DHT22;11484;50.858;4.384;2023-05-07T12:48:23;21.60;99.90
22635;DHT22;11484;50.858;4.384;2023-05-07T12:50:54;21.70;99.90
22635;DHT22;11484;50.858;4.384;2023-05-07T12:53:22;21.80;99.90
22635;DHT22;11484;50.858;4.384;2023-05-07T12:55:50;21.80;99.90
22635;DHT22;11484;50.858;4.384;2023-05-07T13:00:42;21.80;99.90
22635;DHT22;11484;50.858;4.384;2023-05-07T13:03:09;21.90;99.90
22635;DHT22;11484;50.858;4.384;2023-05-07T13:05:35;21.90;99.90
22635;DHT22;11484;50.858;4.384;2023-05-07T13:08:01;21.80;99.90
22635;DHT22;11484;50.858;4.384;2023-05-07T13:10:27;21.60;99.90
22635;DHT22;11484;50.858;4.384;2023-05-07T13:12:53;21.80;99.90
22635;DHT22;11484;50.858;4.384;2023-05-07T13:15:19;21.90;99.90
22635;DHT22;11484;50.858;4.384;2023-05-07T13:17:45;22.10;99.90
22635;DHT22;11484;50.858;4.384;2023-05-07T13:20:11;22.10;99.90
22635;DHT22;11484;50.858;4.384;2023-05-07T13:22:38;22.00;99.90
22635;DHT22;11484;50.858;4.384;2023-05-07T13:25:04;22.00;99.90
22635;DHT22;11484;50.858;4.384;2023-05-07T13:27:31;22.00;99.90
22635;DHT22;11484;50.858;4.384;2023-05-07T13:29:57;22.00;99.90
22635;DHT22;11484;50.858;4.384;2023-05-07T13:32:23;21.90;99.90
22635;DHT22;11484;50.858;4.384;2023-05-07T13:34:48;22.00;99.90
22635;DHT22;11484;50.858;4.384;2023-05-07T13:37:14;22.00;99.90
22635;DHT22;11484;50.858;4.384;2023-05-07T13:39:40;22.10;99.90
22635;DHT22;11484;50.858;4.384;2023-05-07T13:42:06;22.00;99.90
22635;DHT22;11484;50.858;4.384;2023-05-07T13:44:32;21.80;99.90
22635;DHT22;11484;50.858;4.384;2023-05-07T13:46:58;21.70;99.90
22635;DHT22;11484;50.858;4.384;2023-05-07T13:49:24;21.60;99.90
22635;DHT22;11484;50.858;4.384;2023-05-07T13:51:50;21.60;99.90
22635;DHT22;11484;50.858;4.384;2023-05-07T13:54:15;21.60;99.90
22635;DHT22;11484;50.858;4.384;2023-05-07T13:56:41;21.80;99.90
22635;DHT22;11484;50.858;4.384;2023-05-07T13:59:07;21.90;99.90
22635;DHT22;11484;50.858;4.384;2023-05-07T14:01:33;21.90;99.90
22635;DHT22;11484;50.858;4.384;2023-05-07T14:03:59;21.80;99.90
22635;DHT22;11484;50.858;4.384;2023-05-07T14:06:25;21.80;99.90
22635;DHT22;11484;50.858;4.384;2023-05-07T14:08:51;21.70;99.90
22635;DHT22;11484;50.858;4.384;2023-05-07T14:11:17;21.70;99.90
22635;DHT22;11484;50.858;4.384;2023-05-07T14:13:42;21.80;99.90
22635;DHT22;11484;50.858;4.384;2023-05-07T14:16:08;21.70;99.90
22635;DHT22;11484;50.858;4.384;2023-05-07T14:18:34;21.60;99.90
22635;DHT22;11484;50.858;4.384;2023-05-07T14:21:00;21.70;99.90
22635;DHT22;11484;50.858;4.384;2023-05-07T14:23:26;21.60;99.90
22635;DHT22;11484;50.858;4.384;2023-05-07T14:25:53;21.70;99.90
22635;DHT22;11484;50.858;4.384;2023-05-07T14:28:19;21.60;99.90
22635;DHT22;11484;50.858;4.384;2023-05-07T14:30:45;21.60;99.90
22635;DHT22;11484;50.858;4.384;2023-05-07T14:33:10;21.50;99.90
22635;DHT22;11484;50.858;4.384;2023-05-07T14:35:36;21.60;99.90
22635;DHT22;11484;50.858;4.384;2023-05-07T14:38:02;21.60;99.90
22635;DHT22;11484;50.858;4.384;2023-05-07T14:40:28;21.60;99.90
22635;DHT22;11484;50.858;4.384;2023-05-07T14:42:54;21.60;99.90
22635;DHT22;11484;50.858;4.384;2023-05-07T14:45:20;21.60;99.90
22635;DHT22;11484;50.858;4.384;2023-05-07T14:47:46;21.60;99.90
22635;DHT22;11484;50.858;4.384;2023-05-07T14:50:12;21.60;99.90
22635;DHT22;11484;50.858;4.384;2023-05-07T14:52:37;21.60;99.90
22635;DHT22;11484;50.858;4.384;2023-05-07T14:55:04;21.60;99.90
22635;DHT22;11484;50.858;4.384;2023-05-07T14:57:30;21.70;99.90
22635;DHT22;11484;50.858;4.384;2023-05-07T15:00:00;21.60;99.90
22635;DHT22;11484;50.858;4.384;2023-05-07T15:02:26;21.60;99.90
22635;DHT22;11484;50.858;4.384;2023-05-07T15:04:52;21.60;99.90
22635;DHT22;11484;50.858;4.384;2023-05-07T15:07:18;21.50;99.90
22635;DHT22;11484;50.858;4.384;2023-05-07T15:09:44;21.50;99.90
22635;DHT22;11484;50.858;4.384;2023-05-07T15:12:10;21.50;99.90
22635;DHT22;11484;50.858;4.384;2023-05-07T15:14:39;21.50;99.90
22635;DHT22;11484;50.858;4.384;2023-05-07T15:17:05;21.50;99.90
22635;DHT22;11484;50.858;4.384;2023-05-07T15:19:31;21.50;99.90
22635;DHT22;11484;50.858;4.384;2023-05-07T15:21:57;21.50;99.90
22635;DHT22;11484;50.858;4.384;2023-05-07T15:24:27;21.50;99.90
22635;DHT22;11484;50.858;4.384;2023-05-07T15:26:53;21.50;99.90
22635;DHT22;11484;50.858;4.384;2023-05-07T15:29:18;21.50;99.90
22635;DHT22;11484;50.858;4.384;2023-05-07T15:31:44;21.50;99.90
22635;DHT22;11484;50.858;4.384;2023-05-07T15:34:10;21.40;99.90
22635;DHT22;11484;50.858;4.384;2023-05-07T15:36:35;21.30;99.90
22635;DHT22;11484;50.858;4.384;2023-05-07T15:39:02;21.10;99.90
22635;DHT22;11484;50.858;4.384;2023-05-07T15:41:29;21.00;99.90
22635;DHT22;11484;50.858;4.384;2023-05-07T15:43:55;21.00;99.90